createdAt,value
2022-11-29T04:59:24.743Z,16.27
2022-11-29T05:02:51.492Z,15.45
2022-11-29T05:09:26.081Z,15.57
2022-11-29T05:12:42.423Z,14.32
2022-11-29T05:16:09.461Z,14.75
2022-11-29T05:19:39.907Z,15.60
2022-11-29T05:23:05.888Z,15.43
2022-11-29T05:26:19.779Z,14.87
2022-11-29T05:29:39.760Z,15.50
2022-11-29T05:33:06.816Z,15.88
2022-11-29T05:36:30.512Z,15.55
2022-11-29T05:39:51.396Z,15.70
2022-11-29T05:43:12.956Z,14.57
2022-11-29T05:46:26.799Z,14.52
2022-11-29T05:49:48.613Z,15.10
2022-11-29T05:53:01.929Z,13.62
2022-11-29T05:56:15.666Z,13.55
2022-11-29T05:59:23.924Z,13.25
2022-11-29T06:02:26.240Z,13.93
2022-11-29T06:05:50.858Z,14.45
2022-11-29T06:09:25.576Z,13.90
2022-11-29T06:12:30.784Z,14.90
2022-11-29T06:16:04.076Z,14.13
2022-11-29T06:19:24.784Z,14.85
2022-11-29T06:22:41.056Z,15.07
2022-11-29T06:29:19.881Z,15.38
2022-11-29T06:32:40.019Z,15.43
2022-11-29T06:35:52.276Z,16.12
2022-11-29T06:38:54.810Z,16.45
2022-11-29T06:41:56.987Z,16.42
2022-11-29T06:44:59.556Z,17.45
2022-11-29T06:48:06.741Z,18.15
2022-11-29T06:51:30.827Z,15.57
2022-11-29T06:54:51.504Z,16.20
2022-11-29T06:58:24.929Z,16.10
2022-11-29T07:01:47.733Z,15.85
2022-11-29T07:05:20.309Z,15.73
2022-11-29T07:08:23.985Z,16.42
2022-11-29T07:11:28.075Z,15.95
2022-11-29T07:14:31.379Z,16.17
2022-11-29T07:17:43.844Z,16.90
2022-11-29T07:21:03.453Z,16.92
2022-11-29T07:24:29.687Z,17.58
2022-11-29T07:27:42.168Z,17.55
2022-11-29T07:30:53.340Z,17.80
2022-11-29T07:34:16.601Z,17.87
2022-11-29T07:37:31.047Z,17.12
2022-11-29T07:40:50.996Z,16.85
2022-11-29T07:43:56.189Z,18.75
2022-11-29T07:46:58.291Z,17.73
2022-11-29T07:50:00.612Z,17.95
2022-11-29T07:53:03.392Z,17.83
2022-11-29T07:56:05.853Z,18.65
2022-11-29T07:59:12.768Z,17.80
2022-11-29T08:02:15.191Z,17.90
2022-11-29T08:05:18.056Z,16.48
2022-11-29T08:08:20.283Z,17.27
2022-11-29T08:11:22.563Z,16.75
2022-11-29T08:14:24.625Z,20.08
2022-11-29T08:17:28.709Z,16.17
2022-11-29T08:20:30.872Z,17.70
2022-11-29T08:23:33.185Z,15.95
2022-11-29T08:26:35.271Z,16.20
2022-11-29T08:29:37.598Z,17.37
2022-11-29T08:32:39.685Z,20.75
2022-11-29T08:35:42.166Z,20.35
2022-11-29T08:38:44.665Z,18.75
2022-11-29T08:41:49.348Z,19.12
2022-11-29T08:44:51.590Z,18.42
2022-11-29T08:47:53.964Z,17.50
2022-11-29T08:50:56.645Z,17.75
2022-11-29T08:54:01.042Z,17.75
2022-11-29T08:57:37.864Z,17.35
2022-11-29T09:00:25.512Z,17.27
2022-11-29T09:03:46.408Z,20.02
2022-11-29T09:06:49.721Z,21.00
2022-11-29T09:09:51.824Z,20.15
2022-11-29T09:12:54.940Z,20.37
2022-11-29T09:15:57.532Z,20.20
2022-11-29T09:19:00.191Z,19.65
2022-11-29T09:22:03.493Z,19.00
2022-11-29T09:25:06.342Z,18.62
2022-11-29T09:28:08.671Z,19.70
2022-11-29T09:31:13.856Z,19.87
2022-11-29T09:34:18.360Z,18.60
2022-11-29T09:37:20.712Z,18.95
2022-11-29T09:40:30.840Z,19.58
2022-11-29T09:43:48.264Z,19.37
2022-11-29T09:47:09.689Z,20.70
2022-11-29T09:50:34.125Z,19.95
2022-11-29T09:53:55.273Z,19.55
2022-11-29T09:56:57.936Z,18.55
2022-11-29T10:00:11.097Z,19.17
2022-11-29T10:03:44.844Z,17.98
2022-11-29T10:07:08.564Z,19.00
2022-11-29T10:10:19.693Z,17.52
2022-11-29T10:13:35.775Z,18.15
2022-11-29T10:19:52.777Z,18.75
2022-11-29T10:23:09.376Z,17.42
2022-11-29T10:26:12.664Z,19.45
2022-11-29T10:29:16.374Z,20.17
2022-11-29T10:32:21.215Z,18.60
2022-11-29T10:35:24.446Z,18.33
2022-11-29T10:38:31.069Z,19.27
2022-11-29T10:41:34.295Z,20.12
2022-11-29T10:44:36.540Z,21.87
2022-11-29T10:47:39.124Z,21.02
2022-11-29T10:50:44.641Z,20.35
2022-11-29T10:53:47.448Z,20.43
2022-11-29T10:56:49.884Z,20.50
2022-11-29T11:00:18.818Z,20.50
2022-11-29T11:03:49.011Z,19.92
2022-11-29T11:06:58.066Z,19.45
2022-11-29T11:10:00.594Z,20.37
2022-11-29T11:13:20.412Z,20.80
2022-11-29T11:16:24.559Z,23.08
2022-11-29T11:19:33.053Z,21.42
2022-11-29T11:22:39.854Z,21.27
2022-11-29T11:25:42.388Z,22.30
2022-11-29T11:28:55.071Z,19.55
2022-11-29T11:31:59.762Z,21.15
2022-11-29T11:35:02.315Z,20.55
2022-11-29T11:38:04.768Z,20.77
2022-11-29T11:41:45.973Z,20.80
2022-11-29T11:44:52.434Z,21.27
2022-11-29T11:48:00.076Z,21.48
2022-11-29T11:51:03.076Z,21.50
2022-11-29T11:54:06.179Z,21.80
2022-11-29T11:57:20.429Z,20.70
2022-11-29T12:01:14.185Z,22.67
2022-11-29T12:04:36.632Z,21.58
2022-11-29T12:11:14.404Z,21.20
2022-11-29T12:14:40.357Z,23.23
2022-11-29T12:21:03.284Z,21.10
2022-11-29T12:24:13.632Z,23.10
2022-11-29T12:27:16.127Z,22.13
2022-11-29T12:30:19.450Z,21.15
2022-11-29T12:33:43.179Z,21.30
2022-11-29T12:36:51.198Z,23.65
2022-11-29T12:39:57.564Z,22.90
2022-11-29T12:43:15.472Z,22.50
2022-11-29T12:46:27.704Z,24.40
2022-11-29T12:49:53.895Z,23.00
2022-11-29T12:53:21.220Z,23.65
2022-11-29T12:56:45.220Z,23.12
2022-11-29T13:00:12.843Z,24.60
2022-11-29T13:03:28.822Z,22.62
2022-11-29T13:07:12.561Z,24.17
2022-11-29T13:10:18.105Z,24.12
2022-11-29T13:13:42.698Z,23.90
2022-11-29T13:17:03.647Z,23.75
2022-11-29T13:20:33.536Z,23.35
2022-11-29T13:27:07.849Z,24.73
2022-11-29T13:30:15.618Z,24.98
2022-11-29T13:33:26.895Z,22.87
2022-11-29T13:37:15.318Z,23.38
2022-11-29T13:40:25.832Z,24.98
2022-11-29T13:43:40.776Z,23.50
2022-11-29T13:46:53.817Z,23.38
2022-11-29T13:50:04.920Z,24.60
2022-11-29T13:53:22.730Z,23.52
2022-11-29T13:56:26.292Z,21.75
2022-11-29T13:59:30.612Z,25.02
2022-11-29T14:02:33.174Z,24.20
2022-11-29T14:05:39.811Z,24.05
2022-11-29T14:12:25.137Z,28.48
2022-11-29T14:15:31.174Z,46.25
2022-11-29T14:18:36.536Z,54.13
2022-11-29T14:22:06.316Z,39.92
2022-11-29T14:25:50.528Z,35.00
2022-11-29T14:28:48.024Z,41.47
2022-11-29T14:31:51.914Z,31.50
2022-11-29T14:35:06.124Z,37.90
2022-11-29T14:38:19.823Z,30.80
2022-11-29T14:41:59.583Z,33.33
2022-11-29T14:45:06.219Z,30.10
2022-11-29T14:48:26.726Z,29.52
2022-11-29T14:51:31.668Z,27.45
2022-11-29T14:54:35.393Z,26.00
2022-11-29T14:57:51.296Z,25.35
2022-11-29T15:01:01.817Z,25.90
2022-11-29T15:04:09.763Z,26.50
2022-11-29T15:07:18.282Z,27.37
2022-11-29T15:10:29.422Z,26.02
2022-11-29T15:13:34.668Z,24.42
2022-11-29T15:16:36.980Z,24.80
2022-11-29T15:19:50.876Z,25.77
2022-11-29T15:22:55.360Z,26.17
2022-11-29T15:26:01.253Z,26.55
2022-11-29T15:29:14.738Z,26.80
2022-11-29T15:32:25.799Z,27.33
2022-11-29T15:35:28.983Z,27.45
2022-11-29T15:38:42.188Z,26.15
2022-11-29T15:41:44.635Z,26.15
2022-11-29T15:44:48.396Z,26.23
2022-11-29T15:47:51.291Z,26.05
2022-11-29T15:51:19.169Z,27.15
2022-11-29T15:54:35.447Z,25.55
2022-11-29T15:57:48.368Z,25.20
2022-11-29T16:00:51.990Z,26.95
2022-11-29T16:03:57.903Z,25.75
2022-11-29T16:07:00.008Z,29.20
2022-11-29T16:10:10.436Z,27.27
2022-11-29T16:13:31.464Z,27.02
2022-11-29T16:16:35.401Z,27.58
2022-11-29T16:19:39.171Z,27.33
2022-11-29T16:22:41.504Z,28.77
2022-11-29T16:26:01.808Z,26.33
2022-11-29T16:29:04.985Z,28.40
2022-11-29T16:32:32.654Z,27.20
2022-11-29T16:35:36.229Z,25.88
2022-11-29T16:38:44.860Z,25.25
2022-11-29T16:42:24.848Z,27.90
2022-11-29T16:45:35.396Z,55.20
2022-11-29T16:48:38.299Z,30.35
